createdAt,value
2023-05-20T00:02:13.730Z,100089.06
2023-05-20T00:04:44.156Z,100092.44
2023-05-20T00:07:13.006Z,100095.03
2023-05-20T00:09:41.798Z,100083.00
2023-05-20T00:12:11.075Z,100091.53
2023-05-20T00:14:39.977Z,100084.72
2023-05-20T00:17:08.839Z,100081.31
2023-05-20T00:19:37.617Z,100088.13
2023-05-20T00:22:08.359Z,100091.53
2023-05-20T00:24:37.266Z,100086.41
2023-05-20T00:27:06.270Z,100071.09
2023-05-20T00:29:35.785Z,100094.09
2023-05-20T00:32:04.797Z,100085.56
2023-05-20T00:34:33.550Z,100083.03
2023-05-20T00:37:02.439Z,100086.41
2023-05-20T00:39:32.793Z,100092.41
2023-05-20T00:42:03.792Z,100094.09
2023-05-20T00:44:32.687Z,100080.44
2023-05-20T00:47:03.214Z,100096.66
2023-05-20T00:49:32.122Z,100083.91
2023-05-20T00:52:01.028Z,100095.81
2023-05-20T00:54:30.057Z,100090.69
2023-05-20T00:57:03.453Z,100096.69
2023-05-20T00:59:32.798Z,100060.91
2023-05-20T01:02:02.076Z,100089.03
2023-05-20T01:04:32.493Z,100094.16
2023-05-20T01:07:04.821Z,100085.63
2023-05-20T01:09:35.095Z,100084.78
2023-05-20T01:12:13.635Z,100080.50
2023-05-20T01:14:50.058Z,100089.09
2023-05-20T01:17:22.454Z,100089.03
2023-05-20T01:19:54.304Z,100084.75
2023-05-20T01:22:28.226Z,100083.03
2023-05-20T01:25:00.302Z,100077.06
2023-05-20T01:27:30.745Z,100084.75
2023-05-20T01:29:59.674Z,100089.84
2023-05-20T01:32:34.197Z,100082.16
2023-05-20T01:35:04.970Z,100077.06
2023-05-20T01:37:38.681Z,100084.69
2023-05-20T01:40:10.200Z,100083.81
2023-05-20T01:42:40.549Z,100084.63
2023-05-20T01:45:10.300Z,100085.47
2023-05-20T01:47:40.377Z,100085.41
2023-05-20T01:50:10.383Z,100079.44
2023-05-20T01:52:40.613Z,100082.00
2023-05-20T01:55:10.515Z,100073.41
2023-05-20T01:57:39.426Z,100080.25
2023-05-20T02:00:10.005Z,100090.47
2023-05-20T02:02:47.043Z,100090.53
2023-05-20T02:05:16.164Z,100096.50
2023-05-20T02:07:46.626Z,100087.97
2023-05-20T02:10:15.545Z,100080.31
2023-05-20T02:12:44.374Z,100087.13
2023-05-20T02:15:13.460Z,100083.69
2023-05-20T02:17:45.182Z,100085.38
2023-05-20T02:20:16.517Z,100079.41
2023-05-20T02:22:46.910Z,100080.25
2023-05-20T02:25:16.239Z,100074.28
2023-05-20T02:27:46.038Z,100093.13
2023-05-20T02:30:16.461Z,100089.69
2023-05-20T02:32:45.431Z,100082.00
2023-05-20T02:35:14.248Z,100082.00
2023-05-20T02:37:44.999Z,100086.28
2023-05-20T02:40:15.356Z,100071.75
2023-05-20T02:42:44.345Z,100070.88
2023-05-20T02:45:13.152Z,100075.16
2023-05-20T02:47:42.128Z,100070.03
2023-05-20T02:50:12.083Z,100072.63
2023-05-20T02:52:42.855Z,100075.19
2023-05-20T02:55:12.175Z,100064.09
2023-05-20T02:57:42.474Z,100077.78
2023-05-20T03:00:13.677Z,100075.22
2023-05-20T03:02:42.653Z,100075.28
2023-05-20T03:05:12.541Z,100087.22
2023-05-20T03:07:41.395Z,100083.81
2023-05-20T03:10:11.949Z,100092.38
2023-05-20T03:12:43.409Z,100089.84
2023-05-20T03:15:12.961Z,100081.31
2023-05-20T03:17:41.951Z,100082.97
2023-05-20T03:20:12.970Z,100082.16
2023-05-20T03:22:43.043Z,100083.84
2023-05-20T03:25:12.056Z,100080.44
2023-05-20T03:27:43.389Z,100083.84
2023-05-20T03:30:12.924Z,100084.72
2023-05-20T03:32:42.201Z,100076.22
2023-05-20T03:35:11.338Z,100087.28
2023-05-20T03:37:40.209Z,100094.13
2023-05-20T03:40:10.548Z,100097.56
2023-05-20T03:42:42.388Z,100093.28
2023-05-20T03:45:12.287Z,100081.31
2023-05-20T03:47:49.229Z,100089.00
2023-05-20T03:50:19.996Z,100086.47
2023-05-20T03:52:48.954Z,100085.63
2023-05-20T03:55:20.691Z,100092.44
2023-05-20T03:57:51.646Z,100088.19
2023-05-20T04:00:20.683Z,100089.00
2023-05-20T04:02:51.469Z,100073.72
2023-05-20T04:05:21.709Z,100089.03
2023-05-20T04:07:51.027Z,100089.09
2023-05-20T04:10:23.761Z,100093.34
2023-05-20T04:12:55.228Z,100101.03
2023-05-20T04:15:25.407Z,100089.88
2023-05-20T04:17:57.874Z,100093.31
2023-05-20T04:20:27.170Z,100091.59
2023-05-20T04:22:58.956Z,100099.28
2023-05-20T04:25:27.858Z,100095.88
2023-05-20T04:28:00.163Z,100100.13
2023-05-20T04:30:29.471Z,100103.47
2023-05-20T04:32:58.426Z,100102.53
2023-05-20T04:35:27.536Z,100095.59
2023-05-20T04:37:59.809Z,100095.50
2023-05-20T04:40:28.979Z,100092.81
2023-05-20T04:43:01.515Z,100095.22
2023-05-20T04:45:31.877Z,100096.81
2023-05-20T04:48:00.893Z,100091.56
2023-05-20T04:50:30.082Z,100098.22
2023-05-20T04:52:59.167Z,100097.25
2023-05-20T04:55:31.251Z,100101.34
2023-05-20T04:58:02.383Z,100099.47
2023-05-20T05:00:31.673Z,100101.84
2023-05-20T05:03:01.447Z,100104.25
2023-05-20T05:05:30.375Z,100104.13
2023-05-20T05:07:59.441Z,100103.94
2023-05-20T05:10:28.371Z,100103.72
2023-05-20T05:12:57.139Z,100107.84
2023-05-20T05:15:27.660Z,100105.94
2023-05-20T05:17:56.878Z,100108.22
2023-05-20T05:20:25.776Z,100103.72
2023-05-20T05:22:54.640Z,100095.88
2023-05-20T05:25:23.591Z,100091.38
2023-05-20T05:27:52.401Z,100084.47
2023-05-20T05:30:23.531Z,100091.88
2023-05-20T05:32:54.046Z,100089.97
2023-05-20T05:35:24.174Z,100086.34
2023-05-20T05:37:53.011Z,100091.31
2023-05-20T06:56:14.594Z,100071.53
2023-05-20T06:58:43.557Z,100079.59
2023-05-20T07:01:12.362Z,100061.78
2023-05-20T07:03:43.038Z,100058.84
2023-05-20T07:06:13.148Z,100056.81
2023-05-20T07:08:41.984Z,100067.66
2023-05-20T07:11:11.820Z,100061.97
2023-05-20T07:13:42.206Z,100061.38
2023-05-20T07:16:11.413Z,100057.56
2023-05-20T07:18:44.299Z,100053.84
2023-05-20T07:21:13.611Z,100050.13
2023-05-20T07:24:08.851Z,100053.19
2023-05-20T07:26:43.507Z,100051.06
2023-05-20T07:29:15.458Z,100051.28
2023-05-20T07:31:44.426Z,100045.94
2023-05-20T07:34:13.186Z,100044.91
2023-05-20T07:36:44.054Z,100039.69
2023-05-20T07:39:15.308Z,100046.38
2023-05-20T07:41:44.738Z,100038.19
2023-05-20T07:44:16.170Z,100046.00
2023-05-20T07:46:49.891Z,100036.56
2023-05-20T07:49:21.801Z,100021.06
2023-05-20T07:51:51.016Z,100015.94
2023-05-20T07:54:19.829Z,100028.25
2023-05-20T07:56:52.147Z,100015.63
2023-05-20T07:59:22.858Z,100021.97
2023-05-20T08:01:52.672Z,100017.97
2023-05-20T08:04:23.449Z,100020.28
2023-05-20T08:06:54.697Z,100015.03
2023-05-20T08:09:33.438Z,100009.00
2023-05-20T08:12:02.741Z,100007.50
2023-05-20T08:14:33.037Z,99999.53
2023-05-20T08:17:01.896Z,100006.41
2023-05-20T08:19:30.829Z,99969.84
2023-05-20T08:21:59.701Z,100002.06
2023-05-20T08:24:28.839Z,99997.31
2023-05-20T08:26:58.353Z,99991.59
2023-05-20T08:29:29.241Z,99998.97
2023-05-20T08:32:01.360Z,99991.75
2023-05-20T08:34:30.914Z,99988.59
2023-05-20T08:36:59.797Z,99987.41
2023-05-20T08:39:28.665Z,99987.22
2023-05-20T08:42:00.281Z,99983.09
2023-05-20T08:44:31.021Z,99987.31
2023-05-20T08:47:04.087Z,99991.56
2023-05-20T08:49:34.061Z,99984.22
2023-05-20T08:52:03.201Z,99976.16
2023-05-20T08:54:45.638Z,99980.56
2023-05-20T08:57:15.371Z,99987.16
2023-05-20T08:59:45.864Z,99978.97
2023-05-20T09:02:16.318Z,99974.88
2023-05-20T09:04:45.251Z,99976.78
2023-05-20T09:07:14.123Z,99978.19
2023-05-20T09:09:43.054Z,99978.59
2023-05-20T09:12:11.827Z,99984.41
2023-05-20T09:14:40.628Z,99975.47
2023-05-20T09:17:09.491Z,99973.94
2023-05-20T09:19:39.963Z,99981.09
2023-05-20T09:22:09.127Z,99972.19
2023-05-20T09:24:37.906Z,99974.47
2023-05-20T09:27:07.260Z,99969.09
2023-05-20T09:29:35.718Z,99971.75
2023-05-20T09:32:06.045Z,99975.25
2023-05-20T09:34:34.964Z,99975.34
2023-05-20T09:37:07.571Z,99967.38
2023-05-20T09:39:58.115Z,99967.28
2023-05-20T09:42:30.103Z,99964.47
2023-05-20T09:45:00.551Z,99969.41
2023-05-20T09:47:29.674Z,99961.16
2023-05-20T09:49:59.621Z,99956.22
2023-05-20T09:52:30.272Z,99957.19
2023-05-20T09:55:00.514Z,99949.69
2023-05-20T09:57:32.074Z,99956.81
2023-05-20T10:00:01.063Z,99946.97
2023-05-20T10:02:30.224Z,99945.19
2023-05-20T10:05:02.111Z,99943.22
2023-05-20T10:08:04.148Z,99942.50
2023-05-20T10:10:47.903Z,99912.38
2023-05-20T10:13:43.121Z,99938.00
2023-05-20T10:16:30.702Z,99937.28
2023-05-20T10:19:08.702Z,99938.34
2023-05-20T10:21:37.710Z,99930.88
2023-05-20T10:24:09.842Z,99932.94
2023-05-20T10:26:41.227Z,99932.09
2023-05-20T10:29:17.186Z,99930.50
2023-05-20T10:31:46.877Z,99925.47
2023-05-20T10:34:19.003Z,99921.41
2023-05-20T10:36:49.751Z,99921.53
2023-05-20T10:39:19.082Z,99919.09
2023-05-20T10:41:49.146Z,99912.06
2023-05-20T10:44:18.047Z,99908.59
2023-05-20T10:47:03.873Z,99903.25
2023-05-20T10:49:36.394Z,99903.34
2023-05-20T10:52:05.579Z,99895.41
2023-05-20T10:54:37.625Z,99894.75
2023-05-20T10:57:10.689Z,99895.81
2023-05-20T10:59:39.734Z,99896.03
2023-05-20T11:02:12.689Z,99896.38
2023-05-20T11:04:44.492Z,99891.97
2023-05-20T11:07:13.592Z,99886.28
2023-05-20T11:09:51.209Z,99876.75
2023-05-20T11:12:22.955Z,99861.97
2023-05-20T11:14:52.097Z,99867.09
2023-05-20T11:17:22.157Z,99864.16
2023-05-20T11:19:52.016Z,99853.91
2023-05-20T11:22:20.840Z,99853.47
2023-05-20T11:24:49.705Z,99851.41
2023-05-20T11:27:18.465Z,99857.34
2023-05-20T11:29:51.972Z,99851.09
2023-05-20T11:32:22.411Z,99854.59
2023-05-20T11:34:53.958Z,99853.31
2023-05-20T11:37:23.861Z,99857.75
2023-05-20T11:40:08.101Z,99857.53
2023-05-20T11:42:37.789Z,99857.00
2023-05-20T11:45:14.847Z,99860.06
2023-05-20T11:47:43.891Z,99849.34
2023-05-20T11:50:18.682Z,99852.47
2023-05-20T11:52:47.582Z,99846.81
2023-05-20T11:55:16.679Z,99855.00
2023-05-20T11:57:45.544Z,99848.28
2023-05-20T12:00:16.068Z,99853.75
2023-05-20T12:02:45.632Z,99845.34
2023-05-20T12:05:14.597Z,99841.97
2023-05-20T12:07:43.916Z,99846.63
2023-05-20T12:10:14.063Z,99843.69
2023-05-20T12:12:44.206Z,99842.00
2023-05-20T12:15:13.546Z,99836.28
2023-05-20T12:17:51.456Z,99845.75
2023-05-20T12:20:23.107Z,99846.19
2023-05-20T12:22:52.272Z,99844.28
2023-05-20T12:25:22.031Z,99837.38
2023-05-20T12:27:51.396Z,99835.28
2023-05-20T12:30:22.481Z,99835.06
2023-05-20T12:32:53.740Z,99832.53
2023-05-20T12:35:39.935Z,99822.81
2023-05-20T12:38:09.488Z,99822.75
2023-05-20T12:40:38.870Z,99818.44
2023-05-20T12:43:07.848Z,99818.41
2023-05-20T12:45:36.743Z,99820.59
2023-05-20T12:48:08.276Z,99812.13
2023-05-20T12:50:37.536Z,99811.03
2023-05-20T12:53:06.393Z,99815.88
2023-05-20T12:55:35.541Z,99822.91
2023-05-20T12:58:04.297Z,99818.50
2023-05-20T13:00:33.366Z,99817.66
2023-05-20T13:03:02.313Z,99813.44
2023-05-20T13:05:32.667Z,99808.31
2023-05-20T13:08:01.492Z,99810.53
2023-05-20T13:10:30.337Z,99806.84
2023-05-20T13:12:59.837Z,99807.31
2023-05-20T13:15:28.598Z,99797.53
2023-05-20T13:17:57.697Z,99793.81
2023-05-20T13:20:26.686Z,99799.84
2023-05-20T13:22:57.150Z,99794.63
2023-05-20T13:25:26.066Z,99800.06
2023-05-20T13:27:54.860Z,99801.41
2023-05-20T13:30:28.814Z,99794.44
2023-05-20T13:32:57.809Z,99789.63
2023-05-20T13:35:26.783Z,99791.84
2023-05-20T13:37:57.082Z,99780.81
2023-05-20T13:40:26.641Z,99777.59
2023-05-20T13:42:55.864Z,99778.38
2023-05-20T13:45:24.623Z,99783.59
2023-05-20T13:47:53.536Z,99771.66
2023-05-20T13:50:22.643Z,99775.09
2023-05-20T13:52:51.913Z,99773.25
2023-05-20T13:55:24.041Z,99767.25
2023-05-20T13:57:54.532Z,99771.66
2023-05-20T14:00:23.434Z,99771.13
2023-05-20T14:02:52.742Z,99770.19
2023-05-20T14:05:21.897Z,99779.53
2023-05-20T14:07:50.902Z,99777.19
2023-05-20T14:10:19.697Z,99758.44
2023-05-20T14:12:49.984Z,99774.81
2023-05-20T14:15:18.894Z,99772.94
2023-05-20T14:17:48.056Z,99777.00
2023-05-20T14:20:17.464Z,99766.84
2023-05-20T14:22:45.875Z,99766.13
2023-05-20T14:25:14.710Z,99766.53
2023-05-20T14:27:43.412Z,99759.09
2023-05-20T14:30:14.503Z,99762.00
2023-05-20T14:32:43.379Z,99761.56
2023-05-20T14:35:12.130Z,99756.22
2023-05-20T14:37:40.936Z,99757.38
2023-05-20T14:40:10.789Z,99764.28
2023-05-20T14:42:40.312Z,99755.06
2023-05-20T14:45:10.180Z,99750.56
2023-05-20T14:47:41.415Z,99749.19
2023-05-20T14:50:10.995Z,99752.34
2023-05-20T14:52:39.803Z,99749.66
2023-05-20T14:55:09.453Z,99742.69
2023-05-20T14:57:38.444Z,99750.03
2023-05-20T15:00:08.969Z,99750.25
2023-05-20T15:02:39.673Z,99754.22
2023-05-20T15:05:09.221Z,99756.31
2023-05-20T15:07:38.109Z,99739.63
2023-05-20T15:10:08.003Z,99748.44
2023-05-20T15:12:36.981Z,99735.53
2023-05-20T15:15:10.405Z,99725.41
2023-05-20T15:17:40.772Z,99729.72
2023-05-20T15:20:10.816Z,99732.53
2023-05-20T15:22:39.618Z,99722.06
2023-05-20T15:25:09.004Z,99718.28
2023-05-20T15:27:37.877Z,99714.94
2023-05-20T15:30:07.810Z,99719.31
2023-05-20T15:32:36.978Z,99718.41
2023-05-20T15:35:08.423Z,99717.00
2023-05-20T15:37:37.245Z,99712.81
2023-05-20T15:40:06.838Z,99721.28
2023-05-20T15:42:36.062Z,99707.72
2023-05-20T15:45:04.998Z,99712.81
2023-05-20T15:47:33.955Z,99715.69
2023-05-20T15:50:05.387Z,99701.19
2023-05-20T15:52:35.913Z,99719.03
2023-05-20T15:55:05.219Z,99715.31
2023-05-20T15:57:34.177Z,99718.91
2023-05-20T16:00:06.817Z,99713.31
2023-05-20T16:02:36.624Z,99712.19
2023-05-20T16:05:06.833Z,99712.75
2023-05-20T16:07:37.012Z,99717.25
2023-05-20T16:10:06.941Z,99722.69
2023-05-20T16:12:35.738Z,99724.00
2023-05-20T16:15:08.363Z,99725.50
2023-05-20T16:17:37.176Z,99721.03
2023-05-20T16:20:08.015Z,99725.25
2023-05-20T16:22:38.434Z,99729.16
2023-05-20T16:25:07.879Z,99724.94
2023-05-20T16:27:36.317Z,99728.66
2023-05-20T16:30:05.629Z,99723.06
2023-05-20T16:32:34.171Z,99726.78
2023-05-20T16:35:03.348Z,99721.56
2023-05-20T16:37:32.608Z,99719.31
2023-05-20T16:40:02.580Z,99723.16
2023-05-20T16:42:31.426Z,99721.56
2023-05-20T16:45:00.234Z,99727.34
2023-05-20T16:47:29.321Z,99724.16
2023-05-20T16:49:58.148Z,99724.50
2023-05-20T16:52:27.246Z,99722.84
2023-05-20T16:54:57.478Z,99727.06
2023-05-20T16:57:27.923Z,99733.13
2023-05-20T16:59:56.899Z,99735.09
2023-05-20T17:02:25.810Z,99727.78
2023-05-20T17:04:55.888Z,99723.16
2023-05-20T17:07:24.572Z,99721.09
2023-05-20T17:09:56.171Z,99723.44
2023-05-20T17:12:25.231Z,99725.78
2023-05-20T17:14:55.646Z,99727.28
2023-05-20T17:17:25.086Z,99731.69
2023-05-20T17:19:53.934Z,99729.13
2023-05-20T17:22:22.841Z,99727.75
2023-05-20T17:24:51.979Z,99728.16
2023-05-20T17:27:20.955Z,99731.84
2023-05-20T17:29:49.964Z,99730.59
2023-05-20T17:32:20.266Z,99744.50
2023-05-20T17:34:49.062Z,99741.13
2023-05-20T17:37:17.977Z,99750.22
2023-05-20T17:39:46.818Z,99756.56
2023-05-20T17:42:15.782Z,99748.16
2023-05-20T17:44:44.571Z,99755.63
2023-05-20T17:47:13.257Z,99753.69
2023-05-20T17:49:43.482Z,99753.31
2023-05-20T17:52:12.295Z,99757.19
2023-05-20T17:54:41.107Z,99751.63
2023-05-20T17:57:09.856Z,99754.06
2023-05-20T17:59:41.713Z,99754.97
2023-05-20T18:02:10.643Z,99751.94
2023-05-20T18:04:39.472Z,99750.88
2023-05-20T18:07:09.943Z,99756.81
2023-05-20T18:09:39.581Z,99759.53
2023-05-20T18:12:09.434Z,99758.75
2023-05-20T18:14:38.329Z,99763.19
2023-05-20T18:17:07.084Z,99761.44
2023-05-20T18:19:35.897Z,99762.97
2023-05-20T18:22:07.558Z,99771.19
2023-05-20T18:24:37.896Z,99775.38
2023-05-20T18:27:07.214Z,99769.53
2023-05-20T18:29:36.013Z,99767.06
2023-05-20T18:32:05.046Z,99776.03
2023-05-20T18:34:34.974Z,99773.19
2023-05-20T18:37:04.092Z,99764.00
2023-05-20T18:39:32.907Z,99769.44
2023-05-20T18:42:03.122Z,99772.22
2023-05-20T18:44:32.090Z,99768.31
2023-05-20T18:47:00.821Z,99768.59
2023-05-20T18:49:29.776Z,99768.91
2023-05-20T18:51:58.842Z,99764.94
2023-05-20T18:54:27.700Z,99768.06
2023-05-20T18:56:56.845Z,99769.28
2023-05-20T18:59:27.095Z,99768.53
2023-05-20T19:01:55.920Z,99775.59
2023-05-20T19:04:25.232Z,99789.53
2023-05-20T19:06:54.399Z,99792.38
2023-05-20T19:09:23.263Z,99811.56
2023-05-20T19:11:56.881Z,99804.09
2023-05-20T19:14:27.300Z,99801.97
2023-05-20T19:16:56.511Z,99814.38
2023-05-20T19:19:25.470Z,99807.66
2023-05-20T19:21:54.298Z,99813.84
2023-05-20T19:24:23.495Z,99810.47
2023-05-20T19:26:52.951Z,99811.53
2023-05-20T19:29:21.872Z,99816.03
2023-05-20T19:31:52.942Z,99815.50
2023-05-20T19:34:21.778Z,99819.28
2023-05-20T19:36:50.738Z,99811.03
2023-05-20T19:39:19.625Z,99815.44
2023-05-20T19:41:48.848Z,99819.84
2023-05-20T19:44:19.327Z,99818.19
2023-05-20T19:46:49.020Z,99814.91
2023-05-20T19:49:18.902Z,99820.38
2023-05-20T19:51:48.207Z,99816.34
2023-05-20T19:54:17.023Z,99805.25
2023-05-20T19:56:46.271Z,99803.66
2023-05-20T19:59:15.117Z,99800.28
2023-05-20T20:01:44.565Z,99808.84
2023-05-20T20:04:14.041Z,99815.72
2023-05-20T20:06:44.387Z,99815.81
2023-05-20T20:09:13.313Z,99819.97
2023-05-20T20:11:42.011Z,99820.97
2023-05-20T20:14:10.954Z,99831.41
2023-05-20T20:16:39.711Z,99828.03
2023-05-20T20:19:08.622Z,99834.25
2023-05-20T20:21:37.519Z,99838.69
2023-05-20T20:24:08.161Z,99835.41
2023-05-20T20:26:37.147Z,99834.53
2023-05-20T20:29:05.973Z,99844.97
2023-05-20T20:31:35.054Z,99840.88
2023-05-20T20:34:03.866Z,99853.00
2023-05-20T20:36:35.297Z,99843.44
2023-05-20T20:39:05.569Z,99849.41
2023-05-20T20:41:36.019Z,99845.84
2023-05-20T20:44:04.813Z,99852.75
2023-05-20T20:46:33.589Z,99851.00
2023-05-20T20:49:02.540Z,99854.28
2023-05-20T20:51:31.316Z,99859.47
2023-05-20T20:54:00.226Z,99852.72
2023-05-20T20:56:29.844Z,99849.34
2023-05-20T20:59:00.565Z,99845.91
2023-05-20T21:01:29.985Z,99847.63
2023-05-20T21:03:58.967Z,99852.78
2023-05-20T21:06:27.696Z,99837.34
2023-05-20T21:08:58.364Z,99840.75
2023-05-20T21:11:28.349Z,99839.06
2023-05-20T21:13:57.402Z,99832.97
2023-05-20T21:16:27.625Z,99829.59
2023-05-20T21:18:56.585Z,99831.22
2023-05-20T21:21:25.452Z,99824.28
2023-05-20T21:23:54.748Z,99822.53
2023-05-20T21:26:25.125Z,99821.47
2023-05-20T21:28:54.101Z,99823.19
2023-05-20T21:31:22.995Z,99823.22
2023-05-20T21:33:53.267Z,99816.25
2023-05-20T21:36:23.305Z,99819.66
2023-05-20T21:38:52.457Z,99821.47
2023-05-20T21:41:21.591Z,99819.81
2023-05-20T21:43:50.501Z,99817.34
2023-05-20T21:46:19.348Z,99817.28
2023-05-20T21:48:48.190Z,99818.31
2023-05-20T21:51:18.511Z,99814.81
2023-05-20T21:53:47.431Z,99810.47
2023-05-20T21:56:16.316Z,99823.47
2023-05-20T21:58:45.122Z,99823.66
2023-05-20T22:01:13.914Z,99818.69
2023-05-20T22:03:48.769Z,99820.47
2023-05-20T22:06:21.715Z,99820.66
2023-05-20T22:08:50.686Z,99825.91
2023-05-20T22:11:19.952Z,99828.63
2023-05-20T22:13:49.050Z,99811.66
2023-05-20T22:16:17.928Z,99821.19
2023-05-20T22:18:49.980Z,99809.50
2023-05-20T22:21:21.701Z,99802.75
2023-05-20T22:23:50.702Z,99813.97
2023-05-20T22:26:19.935Z,99807.94
2023-05-20T22:28:49.055Z,99820.91
2023-05-20T22:31:18.033Z,99817.75
2023-05-20T22:33:46.964Z,99814.50
2023-05-20T22:36:15.914Z,99816.31
2023-05-20T22:38:46.271Z,99806.91
2023-05-20T22:41:15.090Z,99811.38
2023-05-20T22:43:43.956Z,99808.97
2023-05-20T22:46:13.469Z,99808.47
2023-05-20T22:48:42.461Z,99811.88
2023-05-20T22:51:11.368Z,99813.63
2023-05-20T22:53:40.396Z,99812.75
2023-05-20T22:56:11.934Z,99811.09
2023-05-20T22:58:40.822Z,99803.47
2023-05-20T23:01:09.653Z,99812.88
2023-05-20T23:03:40.054Z,99803.50
2023-05-20T23:06:08.891Z,99802.53
2023-05-20T23:08:37.539Z,99807.84
2023-05-20T23:11:06.961Z,99804.47
2023-05-20T23:13:37.432Z,99809.88
2023-05-20T23:16:07.859Z,99807.41
2023-05-20T23:18:36.691Z,99804.97
2023-05-20T23:21:06.062Z,99810.25
2023-05-20T23:23:35.350Z,99806.06
2023-05-20T23:26:05.514Z,99807.00
2023-05-20T23:28:34.488Z,99809.72
2023-05-20T23:31:04.816Z,99815.91
2023-05-20T23:33:34.080Z,99815.91
2023-05-20T23:36:03.048Z,99813.34
2023-05-20T23:38:32.346Z,99814.13
2023-05-20T23:41:01.250Z,99803.88
2023-05-20T23:43:30.018Z,99802.28
2023-05-20T23:45:58.843Z,99803.22
2023-05-20T23:48:29.803Z,99804.13
2023-05-20T23:50:58.735Z,99802.41
2023-05-20T23:53:27.854Z,99805.06
2023-05-20T23:55:56.681Z,99803.38
2023-05-20T23:58:25.650Z,99802.63
